Time;durP1;ratioP1;P1;durP2;ratioP2;P2;SDS_P1;SDS_P2;PMS_P1;PMS_P2;Temp;Humidity;BMP_temperature;BMP_pressure;BME280_temperature;BME280_humidity;BME280_pressure;Samples;Min_cycle;Max_cycle;Signal;HPM_P1;HPM_P2
2022/11/13 00:01:37;;;;;;;8.70;3.92;;;6.90;99.90;;;;;;5001680;28;20062;-68
2022/11/13 00:04:03;;;;;;;6.70;3.42;;;6.90;99.90;;;;;;5002900;28;20034;-68
2022/11/13 00:06:28;;;;;;;6.30;3.08;;;6.90;99.90;;;;;;5002693;28;20037;-68
2022/11/13 00:08:54;;;;;;;5.60;2.90;;;6.90;99.90;;;;;;4999535;28;20045;-67
2022/11/13 00:11:20;;;;;;;5.03;2.85;;;7.00;99.90;;;;;;5000457;28;20096;-68
2022/11/13 00:13:47;;;;;;;5.85;3.70;;;7.00;99.90;;;;;;4999346;28;20046;-68
2022/11/13 00:16:16;;;;;;;6.30;3.28;;;7.00;99.90;;;;;;5003371;28;20040;-68
2022/11/13 00:18:42;;;;;;;7.03;3.40;;;7.00;99.90;;;;;;4999303;28;20125;-68
2022/11/13 00:21:19;;;;;;;6.82;2.92;;;7.00;99.90;;;;;;5001409;28;20120;-68
2022/11/13 00:23:45;;;;;;;5.50;3.40;;;7.00;99.90;;;;;;5000420;28;20044;-67
2022/11/13 00:26:14;;;;;;;8.70;3.67;;;6.90;99.90;;;;;;5001518;28;20034;-68
2022/11/13 00:28:40;;;;;;;7.47;3.58;;;6.90;99.90;;;;;;5001310;28;20133;-67
2022/11/13 00:31:08;;;;;;;7.22;3.30;;;6.90;99.90;;;;;;4986436;28;20041;-68
2022/11/13 00:33:34;;;;;;;5.95;3.22;;;6.90;99.90;;;;;;5001301;28;20507;-68
2022/11/13 00:36:04;;;;;;;10.00;3.70;;;6.90;99.90;;;;;;5000402;28;20084;-68
2022/11/13 00:38:30;;;;;;;5.68;3.33;;;6.90;99.90;;;;;;5000136;28;20048;-68
2022/11/13 00:40:56;;;;;;;6.57;3.28;;;6.90;99.90;;;;;;5003042;28;20708;-68
2022/11/13 00:43:22;;;;;;;6.85;3.42;;;6.90;99.90;;;;;;4999677;28;20481;-68
2022/11/13 00:45:47;;;;;;;7.05;3.80;;;6.90;99.90;;;;;;5001112;28;20104;-68
2022/11/13 00:48:13;;;;;;;4.75;3.35;;;6.90;99.90;;;;;;5000031;28;20046;-68
2022/11/13 00:50:38;;;;;;;6.68;4.05;;;6.90;99.90;;;;;;5002841;28;20041;-68
2022/11/13 00:53:04;;;;;;;5.82;2.67;;;6.90;99.90;;;;;;5006553;28;20045;-68
2022/11/13 00:55:30;;;;;;;9.02;4.60;;;6.90;99.90;;;;;;5007802;28;20037;-68
2022/11/13 00:57:55;;;;;;;7.40;3.83;;;6.90;99.90;;;;;;5021666;28;20406;-68
2022/11/13 01:00:21;;;;;;;8.48;3.22;;;6.90;99.90;;;;;;5008397;28;20322;-68
2022/11/13 01:02:46;;;;;;;5.95;3.95;;;6.90;99.90;;;;;;5020892;28;20064;-68
2022/11/13 01:05:12;;;;;;;7.88;3.95;;;6.90;99.90;;;;;;5022178;28;20194;-69
2022/11/13 01:07:37;;;;;;;6.70;3.60;;;6.90;99.90;;;;;;4996354;28;20083;-68
2022/11/13 01:10:07;;;;;;;7.93;3.53;;;6.90;99.90;;;;;;5004202;28;20041;-68
2022/11/13 01:12:33;;;;;;;8.80;4.00;;;7.00;99.90;;;;;;5020795;28;20512;-68
2022/11/13 01:14:59;;;;;;;8.45;3.70;;;7.00;99.90;;;;;;5019599;28;20414;-68
2022/11/13 01:17:25;;;;;;;7.28;3.95;;;7.00;99.90;;;;;;5020482;28;20048;-68
2022/11/13 01:19:51;;;;;;;6.78;3.65;;;7.00;99.90;;;;;;5018444;28;20044;-68
2022/11/13 01:22:17;;;;;;;5.68;3.20;;;7.00;99.90;;;;;;5021714;28;20037;-68
2022/11/13 01:24:42;;;;;;;7.03;3.60;;;7.00;99.90;;;;;;5020870;28;20258;-68
2022/11/13 01:27:08;;;;;;;6.93;3.88;;;7.00;99.90;;;;;;5020578;28;20042;-68
2022/11/13 01:29:33;;;;;;;6.25;3.63;;;7.00;99.90;;;;;;5007110;28;20033;-68
2022/11/13 01:31:59;;;;;;;7.10;3.97;;;7.00;99.90;;;;;;5008706;28;20038;-68
2022/11/13 01:34:24;;;;;;;5.80;3.75;;;7.00;99.90;;;;;;4986472;28;20510;-68
2022/11/13 01:36:50;;;;;;;6.32;3.75;;;7.00;99.90;;;;;;5005040;28;20046;-68
2022/11/13 01:39:16;;;;;;;6.97;4.07;;;7.00;99.90;;;;;;5019390;28;20042;-68
2022/11/13 01:41:41;;;;;;;6.55;3.97;;;7.00;99.90;;;;;;5005146;28;20026;-68
2022/11/13 01:44:12;;;;;;;8.45;3.88;;;6.90;99.90;;;;;;5020753;28;22371;-68
2022/11/13 01:46:45;;;;;;;6.95;3.72;;;6.90;99.90;;;;;;5021215;28;20029;-68
2022/11/13 01:49:19;;;;;;;9.48;3.47;;;6.90;99.90;;;;;;5003742;28;21400;-68
2022/11/13 01:51:53;;;;;;;9.98;4.70;;;6.90;99.90;;;;;;4998705;28;20049;-68
2022/11/13 01:54:24;;;;;;;7.97;4.65;;;7.00;99.90;;;;;;5016872;28;20614;-68
2022/11/13 01:56:50;;;;;;;8.75;4.05;;;7.00;99.90;;;;;;5021352;28;20076;-68
2022/11/13 01:59:22;;;;;;;6.28;3.53;;;7.00;99.90;;;;;;5019960;28;20033;-68
2022/11/13 02:01:48;;;;;;;10.35;4.32;;;7.00;99.90;;;;;;5018556;28;20038;-68
2022/11/13 02:04:14;;;;;;;8.02;3.95;;;7.00;99.90;;;;;;5021725;28;20409;-68
2022/11/13 02:06:44;;;;;;;8.43;4.28;;;7.00;99.90;;;;;;4990754;28;20128;-68
2022/11/13 02:09:10;;;;;;;12.10;5.70;;;7.00;99.90;;;;;;5016782;28;20049;-68
2022/11/13 02:11:37;;;;;;;6.95;4.95;;;7.10;99.90;;;;;;5023205;28;20422;-68
2022/11/13 02:14:04;;;;;;;7.93;5.38;;;7.00;99.90;;;;;;5005672;28;20091;-68
2022/11/13 02:16:33;;;;;;;10.82;5.18;;;7.00;99.90;;;;;;4989875;28;20045;-68
2022/11/13 02:19:00;;;;;;;13.05;6.00;;;7.10;99.90;;;;;;5004088;28;20064;-68
2022/11/13 02:21:30;;;;;;;12.07;5.10;;;7.10;99.90;;;;;;5003386;28;20066;-68
2022/11/13 02:24:14;;;;;;;13.13;5.78;;;7.10;99.90;;;;;;5016965;28;20033;-68
2022/11/13 02:26:41;;;;;;;11.00;5.05;;;7.10;99.90;;;;;;5020329;28;20538;-68
2022/11/13 02:29:07;;;;;;;8.30;4.97;;;7.10;99.90;;;;;;5019496;28;20049;-68
2022/11/13 02:31:32;;;;;;;10.07;5.35;;;7.10;99.90;;;;;;5020706;28;20395;-68
2022/11/13 02:34:00;;;;;;;11.90;6.30;;;7.10;99.90;;;;;;5019739;28;20128;-68
2022/11/13 02:36:28;;;;;;;10.50;5.07;;;7.10;99.90;;;;;;5005614;28;20064;-68
2022/11/13 02:38:56;;;;;;;11.43;6.25;;;7.10;99.90;;;;;;4984264;28;20627;-68
2022/11/13 02:41:22;;;;;;;11.90;5.95;;;7.10;99.90;;;;;;5020215;28;20064;-68
2022/11/13 02:43:47;;;;;;;10.27;5.57;;;7.10;99.90;;;;;;5010811;28;20461;-68
2022/11/13 02:46:13;;;;;;;11.00;5.43;;;7.10;99.90;;;;;;5009021;28;20052;-68
2022/11/13 02:48:38;;;;;;;10.75;6.13;;;7.10;99.90;;;;;;5024833;28;20045;-68
2022/11/13 02:51:04;;;;;;;13.05;5.75;;;7.10;99.90;;;;;;5023187;28;20053;-67
2022/11/13 02:53:30;;;;;;;9.43;5.28;;;7.10;99.90;;;;;;5026009;28;20053;-68
2022/11/13 02:55:55;;;;;;;11.27;5.40;;;7.10;99.90;;;;;;5005109;28;20071;-68
2022/11/13 02:58:21;;;;;;;11.65;6.45;;;7.10;99.90;;;;;;5022749;28;20046;-68
2022/11/13 03:00:47;;;;;;;10.35;5.20;;;7.10;99.90;;;;;;5022671;28;20034;-68
2022/11/13 03:03:12;;;;;;;8.00;4.65;;;7.10;99.90;;;;;;5009576;28;20041;-68
2022/11/13 03:05:38;;;;;;;7.72;4.32;;;7.10;99.90;;;;;;5006388;28;20056;-68
2022/11/13 03:08:05;;;;;;;10.00;5.68;;;7.10;99.90;;;;;;5023726;28;20045;-68
2022/11/13 03:10:31;;;;;;;9.43;4.53;;;7.10;99.90;;;;;;5008054;28;20041;-68
2022/11/13 03:12:58;;;;;;;11.35;5.68;;;7.10;99.90;;;;;;5005219;28;20479;-68
2022/11/13 03:15:23;;;;;;;12.23;5.78;;;7.10;99.90;;;;;;4994175;28;21482;-68
2022/11/13 03:17:49;;;;;;;9.55;5.30;;;7.10;99.90;;;;;;5008855;28;20037;-68
2022/11/13 03:20:15;;;;;;;10.55;6.53;;;7.10;99.90;;;;;;5023435;28;20048;-68
2022/11/13 03:22:40;;;;;;;10.00;5.45;;;7.10;99.90;;;;;;5006716;28;20041;-68
2022/11/13 03:25:06;;;;;;;10.50;4.55;;;7.10;99.90;;;;;;5008134;28;20033;-68
2022/11/13 03:27:32;;;;;;;10.52;5.57;;;7.10;99.90;;;;;;5012055;28;20038;-68
2022/11/13 03:29:58;;;;;;;7.28;4.50;;;7.00;99.90;;;;;;5005156;28;20228;-68
2022/11/13 03:32:23;;;;;;;11.50;5.45;;;7.00;99.90;;;;;;5011399;28;20073;-68
2022/11/13 03:34:49;;;;;;;8.68;4.25;;;7.00;99.90;;;;;;5012641;28;20331;-68
2022/11/13 03:37:15;;;;;;;11.80;4.70;;;7.00;99.90;;;;;;5023746;28;20052;-68
2022/11/13 03:39:40;;;;;;;10.88;5.15;;;7.00;99.90;;;;;;5005149;28;20033;-68
2022/11/13 03:42:06;;;;;;;10.80;5.82;;;7.00;99.90;;;;;;4978833;28;20041;-68
2022/11/13 03:44:31;;;;;;;9.23;4.68;;;7.00;99.90;;;;;;5021805;28;20088;-68
2022/11/13 03:46:57;;;;;;;8.90;4.22;;;7.00;99.90;;;;;;5008995;28;20030;-67
2022/11/13 03:49:23;;;;;;;8.25;5.47;;;7.00;99.90;;;;;;5024653;28;20561;-68
2022/11/13 03:51:48;;;;;;;9.20;5.38;;;7.00;99.90;;;;;;5023428;28;20057;-68
2022/11/13 03:54:14;;;;;;;8.82;4.85;;;7.00;99.90;;;;;;5002569;28;20410;-68
2022/11/13 03:56:40;;;;;;;8.93;4.30;;;6.90;99.90;;;;;;4991454;28;20045;-68
2022/11/13 03:59:05;;;;;;;7.00;3.75;;;7.00;99.90;;;;;;5007968;28;20040;-68
2022/11/13 04:01:31;;;;;;;10.70;4.43;;;6.90;99.90;;;;;;5013150;28;20520;-67
2022/11/13 04:03:56;;;;;;;7.20;4.80;;;6.90;99.90;;;;;;5020677;28;20100;-67
2022/11/13 04:06:22;;;;;;;9.13;4.70;;;6.90;99.90;;;;;;5022033;28;20048;-68
2022/11/13 04:08:47;;;;;;;8.45;4.53;;;6.90;99.90;;;;;;5021640;28;20120;-68
2022/11/13 04:11:13;;;;;;;9.23;4.30;;;6.90;99.90;;;;;;5006858;28;20494;-68
2022/11/13 04:13:39;;;;;;;9.88;4.32;;;6.90;99.90;;;;;;5011765;28;20380;-67
2022/11/13 04:16:04;;;;;;;8.20;4.90;;;6.80;99.90;;;;;;5021098;28;20037;-68
2022/11/13 04:18:30;;;;;;;7.55;4.80;;;6.80;99.90;;;;;;5021537;28;20519;-67
2022/11/13 04:21:00;;;;;;;14.60;5.60;;;6.80;99.90;;;;;;5024100;28;20129;-68
2022/11/13 04:23:26;;;;;;;7.30;4.05;;;6.70;99.90;;;;;;5022310;28;20038;-68
2022/11/13 04:25:52;;;;;;;8.07;4.93;;;6.70;99.90;;;;;;5002438;28;20044;-68
2022/11/13 04:28:17;;;;;;;9.95;5.00;;;6.70;99.90;;;;;;5022258;28;20350;-69
2022/11/13 04:30:43;;;;;;;10.38;4.93;;;6.70;99.90;;;;;;4988598;28;20049;-68
2022/11/13 04:33:08;;;;;;;8.77;5.13;;;6.70;99.90;;;;;;5006096;28;20045;-68
2022/11/13 04:35:34;;;;;;;9.38;4.85;;;6.70;99.90;;;;;;5005886;28;20042;-68
2022/11/13 04:38:00;;;;;;;8.55;4.32;;;6.60;99.90;;;;;;5008177;28;20044;-68
2022/11/13 04:40:25;;;;;;;8.02;4.95;;;6.60;99.90;;;;;;5022175;28;20176;-68
2022/11/13 04:42:51;;;;;;;7.72;4.20;;;6.60;99.90;;;;;;5021980;28;20380;-68
2022/11/13 04:45:22;;;;;;;5.90;3.60;;;6.60;99.90;;;;;;5021764;28;20036;-68
2022/11/13 04:47:49;;;;;;;9.45;4.65;;;6.60;99.90;;;;;;5006712;28;20041;-68
2022/11/13 04:50:15;;;;;;;8.35;4.50;;;6.50;99.90;;;;;;5006803;28;20079;-68
2022/11/13 04:52:41;;;;;;;6.20;4.13;;;6.50;99.90;;;;;;5006011;28;20092;-68
2022/11/13 04:55:08;;;;;;;14.60;4.78;;;6.50;99.90;;;;;;5006065;28;20077;-68
2022/11/13 04:57:34;;;;;;;6.93;3.88;;;6.50;99.90;;;;;;5024552;28;20049;-68
2022/11/13 05:00:00;;;;;;;9.88;4.15;;;6.50;99.90;;;;;;5021571;28;20083;-68
2022/11/13 05:02:26;;;;;;;7.38;4.53;;;6.50;99.90;;;;;;5019738;28;20926;-68
2022/11/13 05:04:51;;;;;;;8.60;3.92;;;6.50;99.90;;;;;;5021725;28;20037;-68
2022/11/13 05:07:17;;;;;;;6.25;3.60;;;6.50;99.90;;;;;;4988359;28;20041;-68
2022/11/13 05:09:42;;;;;;;6.63;3.95;;;6.50;99.90;;;;;;5020706;28;20088;-68
2022/11/13 05:12:08;;;;;;;8.50;4.32;;;6.50;99.90;;;;;;4990547;28;20045;-68
2022/11/13 05:14:38;;;;;;;5.55;3.28;;;6.40;99.90;;;;;;4990262;28;20045;-68
2022/11/13 05:17:05;;;;;;;9.68;4.15;;;6.30;99.90;;;;;;5003306;28;20048;-68
2022/11/13 05:19:32;;;;;;;8.30;3.70;;;6.30;99.90;;;;;;5006094;28;20041;-68
2022/11/13 05:21:58;;;;;;;8.23;4.20;;;6.30;99.90;;;;;;5006869;28;20053;-68
2022/11/13 05:24:24;;;;;;;6.72;4.38;;;6.20;99.90;;;;;;5020555;28;20041;-68
2022/11/13 05:26:50;;;;;;;6.20;3.30;;;6.20;99.90;;;;;;5023341;28;20132;-68
2022/11/13 05:29:16;;;;;;;6.07;3.47;;;6.20;99.90;;;;;;5019502;28;20045;-68
2022/11/13 05:31:42;;;;;;;8.45;4.40;;;6.20;99.90;;;;;;5005450;28;20033;-67
2022/11/13 05:34:07;;;;;;;8.68;3.47;;;6.10;99.90;;;;;;5021357;28;20037;-68
2022/11/13 05:36:33;;;;;;;5.32;3.47;;;6.10;99.90;;;;;;5021536;28;20056;-68
2022/11/13 05:38:59;;;;;;;5.80;3.38;;;6.10;99.90;;;;;;4988330;28;20124;-68
2022/11/13 05:41:25;;;;;;;7.15;4.03;;;6.10;99.90;;;;;;5019981;28;20506;-68
2022/11/13 05:43:51;;;;;;;8.20;3.72;;;6.10;99.90;;;;;;5001732;28;20384;-68
2022/11/13 05:46:22;;;;;;;6.30;4.18;;;6.10;99.90;;;;;;5010451;28;20112;-68
2022/11/13 05:48:53;;;;;;;9.93;5.20;;;6.10;99.90;;;;;;5018355;28;20049;-68
2022/11/13 05:51:25;;;;;;;9.02;3.75;;;6.10;99.90;;;;;;5021619;28;20057;-68
2022/11/13 05:53:52;;;;;;;5.78;3.58;;;6.10;99.90;;;;;;5020682;28;20052;-68
2022/11/13 05:56:40;;;;;;;9.48;5.32;;;6.10;99.90;;;;;;5008683;28;20068;-68
2022/11/13 05:59:05;;;;;;;13.32;7.53;;;6.10;99.90;;;;;;5020425;28;20057;-68
2022/11/13 06:01:34;;;;;;;7.30;5.55;;;6.10;99.90;;;;;;5005123;28;20268;-68
2022/11/13 06:04:00;;;;;;;9.18;4.43;;;6.10;99.90;;;;;;5021324;28;20041;-68
2022/11/13 06:06:27;;;;;;;7.82;3.78;;;6.10;99.90;;;;;;5020493;28;20048;-68
2022/11/13 06:08:55;;;;;;;6.60;3.63;;;6.10;99.90;;;;;;5004738;28;20781;-68
2022/11/13 06:11:23;;;;;;;8.40;4.25;;;6.10;99.90;;;;;;4988699;28;20073;-68
2022/11/13 06:13:50;;;;;;;7.97;3.90;;;6.00;99.90;;;;;;5003440;28;20040;-68
2022/11/13 06:16:19;;;;;;;8.38;3.90;;;6.00;99.90;;;;;;5006915;28;20475;-68
2022/11/13 06:18:46;;;;;;;9.32;3.55;;;6.00;99.90;;;;;;5007603;28;20049;-67
2022/11/13 06:21:15;;;;;;;9.27;3.92;;;6.00;99.90;;;;;;5009157;28;20475;-68
2022/11/13 06:23:41;;;;;;;6.10;3.30;;;6.00;99.90;;;;;;5006818;28;20125;-68
2022/11/13 06:26:15;;;;;;;5.22;3.50;;;6.00;99.90;;;;;;5010684;28;20064;-67
2022/11/13 06:28:40;;;;;;;8.85;4.20;;;5.90;99.90;;;;;;4989767;28;20041;-68
2022/11/13 06:31:10;;;;;;;7.97;4.68;;;5.90;99.90;;;;;;5007582;28;20083;-68
2022/11/13 06:33:37;;;;;;;6.68;4.30;;;5.90;99.90;;;;;;5024132;28;20073;-68
2022/11/13 06:36:04;;;;;;;9.70;4.82;;;5.90;99.90;;;;;;5009854;28;20051;-68
2022/11/13 06:38:35;;;;;;;8.40;4.05;;;5.90;99.90;;;;;;5009510;28;20179;-68
2022/11/13 06:41:02;;;;;;;6.70;3.63;;;5.90;99.90;;;;;;5011141;28;20132;-68
2022/11/13 06:43:28;;;;;;;9.60;4.20;;;5.90;99.90;;;;;;5005881;28;20037;-68
2022/11/13 06:45:54;;;;;;;5.57;3.33;;;5.90;99.90;;;;;;5024362;28;20554;-68
2022/11/13 06:48:20;;;;;;;5.30;3.35;;;5.90;99.90;;;;;;5023015;28;20499;-68
2022/11/13 06:50:46;;;;;;;5.93;3.95;;;6.00;99.90;;;;;;5006985;28;20124;-68
2022/11/13 06:53:12;;;;;;;5.20;3.30;;;6.00;99.90;;;;;;5024597;28;20067;-68
2022/11/13 06:55:49;;;;;;;7.10;3.33;;;6.00;99.90;;;;;;5022759;28;20033;-68
2022/11/13 06:58:15;;;;;;;7.07;4.00;;;6.00;99.90;;;;;;5008945;28;20045;-68
2022/11/13 07:00:41;;;;;;;5.72;3.30;;;6.00;99.90;;;;;;5021153;28;20048;-68
2022/11/13 07:03:27;;;;;;;8.35;3.80;;;5.90;99.90;;;;;;5010966;28;20044;-68
2022/11/13 07:05:53;;;;;;;7.13;3.55;;;5.90;99.90;;;;;;5005697;28;20454;-68
2022/11/13 07:08:18;;;;;;;6.10;2.90;;;5.90;99.90;;;;;;5008184;28;20061;-68
2022/11/13 07:10:53;;;;;;;6.32;3.90;;;5.90;99.90;;;;;;5007726;28;20167;-68
2022/11/13 07:13:19;;;;;;;5.32;3.05;;;5.90;99.90;;;;;;5023754;28;20043;-68
2022/11/13 07:15:44;;;;;;;8.43;4.82;;;5.90;99.90;;;;;;5021473;28;20481;-68
2022/11/13 07:18:10;;;;;;;6.82;4.05;;;5.90;99.90;;;;;;5022731;28;20799;-68
2022/11/13 07:20:35;;;;;;;7.45;4.40;;;5.90;99.90;;;;;;5027047;28;20491;-68
2022/11/13 07:23:02;;;;;;;8.02;3.97;;;5.90;99.90;;;;;;5021695;28;20029;-68
2022/11/13 07:25:29;;;;;;;7.82;3.67;;;5.90;99.90;;;;;;5024593;28;20430;-68
2022/11/13 07:27:54;;;;;;;7.65;3.80;;;5.90;99.90;;;;;;5023476;28;20037;-68
2022/11/13 07:30:20;;;;;;;9.02;3.38;;;5.90;99.90;;;;;;5005752;28;20513;-69
2022/11/13 07:32:46;;;;;;;8.32;3.55;;;5.90;99.90;;;;;;4990455;28;20459;-68
2022/11/13 07:35:12;;;;;;;5.57;3.63;;;5.90;99.90;;;;;;5011164;28;20065;-68
2022/11/13 07:37:37;;;;;;;7.32;3.90;;;5.90;99.90;;;;;;5019649;28;20052;-68
2022/11/13 07:40:04;;;;;;;16.25;4.22;;;5.90;99.90;;;;;;5007928;28;20033;-68
2022/11/13 07:42:31;;;;;;;6.28;3.78;;;5.90;99.90;;;;;;4993240;28;21330;-68
2022/11/13 07:44:56;;;;;;;6.70;4.03;;;5.90;99.90;;;;;;4991813;28;20040;-68
2022/11/13 07:47:23;;;;;;;8.75;4.65;;;5.90;99.90;;;;;;5022309;28;20037;-68
2022/11/13 07:49:48;;;;;;;6.50;3.47;;;5.90;99.90;;;;;;5022147;28;20045;-68
2022/11/13 07:52:14;;;;;;;8.18;5.03;;;5.90;99.90;;;;;;4994612;28;20428;-70
2022/11/13 07:54:39;;;;;;;7.75;3.70;;;6.00;99.90;;;;;;5007844;28;20045;-67
2022/11/13 07:57:05;;;;;;;8.48;4.43;;;6.00;99.90;;;;;;5009058;28;20524;-68
2022/11/13 07:59:31;;;;;;;8.95;4.47;;;6.00;99.90;;;;;;5006731;28;20045;-68
2022/11/13 08:01:57;;;;;;;7.13;3.25;;;6.10;99.90;;;;;;4991111;28;20037;-67
2022/11/13 08:04:22;;;;;;;10.65;5.28;;;6.10;99.90;;;;;;5009070;28;20064;-68
2022/11/13 08:06:48;;;;;;;8.15;4.53;;;6.10;99.90;;;;;;5020814;28;20414;-68
2022/11/13 08:09:13;;;;;;;6.25;4.00;;;6.10;99.90;;;;;;5018533;28;20041;-68
2022/11/13 08:11:39;;;;;;;8.55;4.82;;;6.20;99.90;;;;;;5007292;28;20044;-67
2022/11/13 08:14:05;;;;;;;12.32;6.72;;;6.20;99.90;;;;;;5015487;28;20033;-67
2022/11/13 08:16:30;;;;;;;13.85;5.93;;;6.20;99.90;;;;;;5021293;28;20067;-67
2022/11/13 08:18:56;;;;;;;11.80;6.40;;;6.30;99.90;;;;;;5005341;28;20048;-67
2022/11/13 08:21:22;;;;;;;19.70;8.00;;;6.30;99.90;;;;;;5021123;28;20130;-67
2022/11/13 08:23:49;;;;;;;9.13;4.70;;;6.30;99.90;;;;;;5003139;28;20053;-67
2022/11/13 08:26:15;;;;;;;8.57;4.22;;;6.40;99.90;;;;;;5022912;28;20041;-67
2022/11/13 08:28:41;;;;;;;9.48;4.50;;;6.40;99.90;;;;;;5008247;28;20072;-67
2022/11/13 08:31:11;;;;;;;7.22;3.90;;;6.40;99.90;;;;;;5000825;28;20033;-67
2022/11/13 08:33:36;;;;;;;7.43;4.18;;;6.40;99.90;;;;;;5022864;28;20041;-67
2022/11/13 08:36:02;;;;;;;6.63;4.32;;;6.50;99.90;;;;;;5021345;28;20410;-67
2022/11/13 08:38:28;;;;;;;8.52;5.07;;;6.50;99.90;;;;;;5021676;28;20037;-67
2022/11/13 08:40:58;;;;;;;5.53;3.45;;;6.60;99.90;;;;;;5004909;28;20090;-67
2022/11/13 08:43:24;;;;;;;7.35;3.65;;;6.60;99.90;;;;;;5019914;28;20644;-67
2022/11/13 08:45:50;;;;;;;6.68;4.07;;;6.70;99.90;;;;;;5019663;28;20041;-67
2022/11/13 08:48:16;;;;;;;7.80;4.35;;;6.70;99.90;;;;;;5006006;28;20548;-67
2022/11/13 08:50:41;;;;;;;6.43;3.40;;;6.70;99.90;;;;;;5022011;28;20124;-68
2022/11/13 08:53:07;;;;;;;6.72;3.50;;;6.80;99.90;;;;;;5022780;28;20041;-68
2022/11/13 08:55:33;;;;;;;6.20;3.60;;;6.80;99.90;;;;;;4988292;28;21311;-67
2022/11/13 08:58:00;;;;;;;6.03;3.25;;;6.80;99.90;;;;;;5018179;28;20487;-67
2022/11/13 09:00:28;;;;;;;8.70;4.32;;;6.80;99.90;;;;;;5019459;28;20061;-67
2022/11/13 09:02:59;;;;;;;5.65;3.58;;;6.90;99.90;;;;;;5004562;28;20037;-67
2022/11/13 09:05:25;;;;;;;8.02;4.05;;;7.00;99.90;;;;;;5021305;28;20037;-67
2022/11/13 09:07:54;;;;;;;6.97;3.78;;;7.00;99.90;;;;;;5005512;28;20088;-67
2022/11/13 09:10:20;;;;;;;7.72;3.92;;;7.00;99.90;;;;;;5002551;28;20033;-68
2022/11/13 09:12:45;;;;;;;10.88;4.00;;;7.10;99.90;;;;;;5007186;28;20048;-67
2022/11/13 09:15:11;;;;;;;8.40;4.53;;;7.10;99.90;;;;;;5016801;28;20033;-67
2022/11/13 09:17:37;;;;;;;7.38;3.53;;;7.10;99.90;;;;;;5005034;28;20468;-67
2022/11/13 09:20:05;;;;;;;6.15;3.72;;;7.20;99.90;;;;;;5001043;28;20040;-67
2022/11/13 09:22:32;;;;;;;8.05;3.92;;;7.20;99.90;;;;;;5007742;28;20045;-67
2022/11/13 09:24:57;;;;;;;7.03;4.05;;;7.20;99.90;;;;;;5020275;28;21341;-67
2022/11/13 09:27:23;;;;;;;7.15;3.95;;;7.30;99.90;;;;;;5024456;28;20053;-67
2022/11/13 09:29:48;;;;;;;5.60;3.50;;;7.30;99.90;;;;;;5005033;28;20255;-67
2022/11/13 09:32:15;;;;;;;6.18;3.75;;;7.40;99.90;;;;;;5004563;28;20063;-68
2022/11/13 09:34:40;;;;;;;7.43;4.03;;;7.40;99.90;;;;;;5004162;28;20076;-67
2022/11/13 09:37:06;;;;;;;7.38;3.38;;;7.50;99.90;;;;;;5007505;28;20288;-67
2022/11/13 09:39:31;;;;;;;7.65;3.80;;;7.50;99.90;;;;;;5000748;28;20088;-67
2022/11/13 09:41:57;;;;;;;7.00;3.97;;;7.50;99.90;;;;;;5006272;28;20037;-67
2022/11/13 09:44:47;;;;;;;6.95;3.38;;;7.60;99.90;;;;;;5020359;28;20065;-67
2022/11/13 09:47:22;;;;;;;6.53;3.63;;;7.60;99.90;;;;;;5002881;28;20380;-67
2022/11/13 09:50:00;;;;;;;6.15;3.25;;;7.60;99.90;;;;;;5020073;28;20573;-68
2022/11/13 09:52:33;;;;;;;9.05;4.28;;;7.60;99.90;;;;;;5021860;28;20057;-72
2022/11/13 09:54:59;;;;;;;7.75;3.92;;;7.70;99.90;;;;;;4990308;28;20038;-67
2022/11/13 09:57:30;;;;;;;8.65;4.20;;;7.70;99.90;;;;;;5027121;28;20063;-67
2022/11/13 10:00:00;;;;;;;7.80;4.35;;;7.70;99.90;;;;;;5024771;28;20033;-67
2022/11/13 10:02:37;;;;;;;7.15;4.18;;;7.70;99.90;;;;;;5013573;28;20055;-68
2022/11/13 10:05:24;;;;;;;7.82;4.25;;;7.70;99.90;;;;;;5021835;28;20176;-67
2022/11/13 10:08:10;;;;;;;6.35;3.55;;;7.80;99.90;;;;;;5022599;28;20041;-67
2022/11/13 10:10:48;;;;;;;8.65;3.70;;;7.80;99.90;;;;;;5006801;28;20058;-67
2022/11/13 10:13:20;;;;;;;8.80;3.90;;;7.80;99.90;;;;;;5023135;28;20057;-67
2022/11/13 10:15:50;;;;;;;4.88;3.05;;;7.80;99.90;;;;;;5020703;28;20167;-68
2022/11/13 10:18:23;;;;;;;5.90;3.15;;;7.80;99.90;;;;;;5007173;28;20034;-67
2022/11/13 10:20:50;;;;;;;4.75;2.40;;;7.80;99.90;;;;;;5005077;28;20049;-67
2022/11/13 10:23:29;;;;;;;8.38;3.65;;;7.90;99.90;;;;;;5024611;28;20040;-67
2022/11/13 10:26:10;;;;;;;6.97;4.05;;;7.90;99.90;;;;;;5007288;28;20049;-67
2022/11/13 10:28:38;;;;;;;10.35;4.35;;;7.90;99.90;;;;;;5007508;28;20506;-67
2022/11/13 10:31:03;;;;;;;7.88;3.92;;;7.90;99.90;;;;;;5009658;28;20124;-67
2022/11/13 10:33:29;;;;;;;4.82;3.20;;;7.90;99.90;;;;;;4994217;28;20136;-67
2022/11/13 10:36:15;;;;;;;6.38;3.83;;;8.00;99.90;;;;;;5016880;28;20128;-68
2022/11/13 10:39:08;;;;;;;7.72;3.25;;;8.00;99.90;;;;;;5009309;28;20050;-67
2022/11/13 10:41:49;;;;;;;7.20;3.65;;;8.10;99.90;;;;;;5015466;28;20061;-67
2022/11/13 10:44:35;;;;;;;7.30;3.80;;;8.10;99.90;;;;;;5022230;28;20033;-67
2022/11/13 10:47:15;;;;;;;7.18;3.58;;;8.10;99.90;;;;;;5024051;28;20080;-67
2022/11/13 10:49:41;;;;;;;6.50;3.97;;;8.20;99.90;;;;;;5027666;28;20183;-68
2022/11/13 10:52:19;;;;;;;5.88;3.72;;;8.30;99.90;;;;;;5025262;28;20132;-68
2022/11/13 10:54:46;;;;;;;6.97;3.30;;;8.30;99.90;;;;;;5022202;28;20041;-68
2022/11/13 10:57:33;;;;;;;5.40;3.33;;;8.40;99.90;;;;;;5010903;28;20175;-68
2022/11/13 10:59:59;;;;;;;5.50;3.42;;;8.40;99.90;;;;;;5002726;28;20083;-68
2022/11/13 11:02:26;;;;;;;5.75;3.65;;;8.40;99.90;;;;;;5006743;28;20045;-68
2022/11/13 11:05:14;;;;;;;5.40;3.25;;;8.50;99.90;;;;;;4989844;28;20121;-68
2022/11/13 11:07:40;;;;;;;8.45;4.45;;;8.60;99.90;;;;;;5006385;28;20503;-68
2022/11/13 11:10:29;;;;;;;5.78;3.28;;;8.60;99.90;;;;;;5018336;28;20072;-67
2022/11/13 11:12:58;;;;;;;5.55;2.67;;;8.70;99.90;;;;;;5019778;28;20042;-68
2022/11/13 11:15:34;;;;;;;5.22;2.80;;;8.70;99.90;;;;;;5003681;28;20129;-67
2022/11/13 11:18:05;;;;;;;8.10;4.07;;;8.80;99.90;;;;;;5024409;28;20038;-67
2022/11/13 11:20:39;;;;;;;5.80;3.40;;;8.80;99.90;;;;;;5024147;28;20080;-68
2022/11/13 11:23:22;;;;;;;5.10;3.10;;;8.80;99.90;;;;;;5023452;28;20041;-67
2022/11/13 11:25:57;;;;;;;5.13;3.30;;;8.90;99.90;;;;;;5024617;28;20037;-68
2022/11/13 11:28:42;;;;;;;6.63;3.97;;;8.90;99.90;;;;;;4993093;28;20037;-67
2022/11/13 11:31:16;;;;;;;8.70;3.33;;;9.00;99.90;;;;;;5011198;28;20114;-67
2022/11/13 11:33:49;;;;;;;5.18;2.83;;;9.00;99.90;;;;;;5008317;28;20748;-68
2022/11/13 11:36:41;;;;;;;8.52;2.97;;;9.00;99.90;;;;;;5008449;28;20124;-68
2022/11/13 11:39:18;;;;;;;4.63;2.60;;;9.10;99.90;;;;;;4993155;28;21254;-68
2022/11/13 11:42:29;;;;;;;5.80;2.97;;;9.10;99.90;;;;;;5024486;28;20205;-68
2022/11/13 11:45:23;;;;;;;7.93;3.30;;;9.20;99.90;;;;;;5001870;28;20041;-68
2022/11/13 11:47:48;;;;;;;5.70;3.28;;;9.20;99.90;;;;;;5020181;28;20052;-68
2022/11/13 11:50:18;;;;;;;6.80;3.20;;;9.20;99.90;;;;;;5002605;28;20406;-68
2022/11/13 11:53:04;;;;;;;5.82;3.35;;;9.30;99.90;;;;;;5009108;28;20064;-68
2022/11/13 11:55:56;;;;;;;5.45;3.22;;;9.30;99.90;;;;;;5009250;28;20029;-67
2022/11/13 11:58:34;;;;;;;6.60;2.83;;;9.40;99.90;;;;;;5002488;28;20049;-67
2022/11/13 12:01:24;;;;;;;4.28;2.78;;;9.40;99.90;;;;;;4998356;28;20120;-67
2022/11/13 12:04:05;;;;;;;4.25;2.58;;;9.40;99.90;;;;;;5018569;28;20040;-67
2022/11/13 12:06:46;;;;;;;5.07;2.83;;;9.50;99.90;;;;;;5019603;28;20045;-67
2022/11/13 12:09:29;;;;;;;6.95;2.65;;;9.60;99.90;;;;;;5017481;28;20052;-67
2022/11/13 12:12:19;;;;;;;4.97;2.45;;;9.60;99.90;;;;;;5000445;28;20406;-68
2022/11/13 12:15:17;;;;;;;6.05;3.10;;;9.70;99.90;;;;;;5017644;28;20534;-68
2022/11/13 12:18:02;;;;;;;4.07;2.97;;;9.70;99.90;;;;;;4979373;28;20059;-68
2022/11/13 12:21:11;;;;;;;5.57;2.95;;;9.70;99.90;;;;;;5015799;28;20045;-71
2022/11/13 12:24:05;;;;;;;5.18;2.88;;;9.70;99.90;;;;;;5017641;28;20053;-67
2022/11/13 12:26:56;;;;;;;4.35;2.72;;;9.70;99.90;;;;;;5011424;28;20049;-67
2022/11/13 12:29:43;;;;;;;5.13;3.38;;;9.80;99.90;;;;;;5013076;28;20049;-67
2022/11/13 12:32:23;;;;;;;6.05;3.05;;;9.80;99.90;;;;;;5012383;28;20072;-67
2022/11/13 12:34:53;;;;;;;4.25;2.38;;;9.80;99.90;;;;;;5029094;28;20600;-67
2022/11/13 12:37:31;;;;;;;4.28;2.90;;;9.90;99.90;;;;;;5010747;28;20049;-67
2022/11/13 12:40:04;;;;;;;3.80;2.08;;;9.90;99.90;;;;;;5011862;28;20045;-68
2022/11/13 12:42:34;;;;;;;5.03;2.53;;;9.90;99.90;;;;;;5012068;28;20497;-67
2022/11/13 12:45:35;;;;;;;4.43;2.45;;;9.90;99.90;;;;;;5030199;28;20049;-67
2022/11/13 12:48:37;;;;;;;4.88;2.72;;;10.00;99.90;;;;;;5025851;28;20103;-67
2022/11/13 12:51:06;;;;;;;4.85;2.50;;;10.00;99.90;;;;;;5027546;28;20411;-67
2022/11/13 12:53:48;;;;;;;6.55;3.35;;;10.00;99.90;;;;;;5011530;28;20045;-67
2022/11/13 12:56:23;;;;;;;3.38;2.20;;;10.00;99.90;;;;;;5011936;28;20115;-67
2022/11/13 12:59:17;;;;;;;6.00;2.20;;;9.90;99.90;;;;;;5029586;28;20052;-67
2022/11/13 13:01:51;;;;;;;4.95;2.30;;;10.00;99.90;;;;;;4992144;28;20050;-67
2022/11/13 13:04:59;;;;;;;5.65;2.80;;;10.00;99.90;;;;;;5009592;28;20510;-67
2022/11/13 13:08:05;;;;;;;4.63;2.50;;;10.00;99.90;;;;;;5028920;28;20439;-67
2022/11/13 13:10:33;;;;;;;6.47;2.92;;;10.00;99.90;;;;;;5028872;28;20045;-67